Aeroporto :
LOGIN :

Iscrizione | Disclaimer

   EN    FR    IT 

 










Sommario :    VFR   VFR Marginale   IFR   IFR Intensivo   IFR Molto Intensivo
Visibilità : 
Base nubi : 
>= 8 km
>= 3000ft
5 / 8 km
1000 / 3000 ft
1500m / 5 km
500 / 1000 ft
800 / 1500m
200 / 500 ft
< 800m
< 200 ft
Simboli :   Temporali  Nebbia  Neve Forte  Precipitazioni Forti  Vento > 20 kt
SIGMETs :   Varie  Temporali  Ghiacco  Turbolenza  Onda orograficha  Ceneri Vulcaniche






- Altitudine del aeroporto : 154 ft
- Codice IATA : SZZ


EPSC - Szczecin Goleniow

ULTIMO METAR :
  • 231200Z 12006KT 9999 FEW019 14/09 Q1021

METARs OBSOLETI :
  • 231130Z 16007KT 130V190 9999 FEW018 14/09 Q1021
  • 231100Z 14006KT 120V190 9999 FEW020 14/09 Q1022
  • 231030Z 14005KT 100V190 CAVOK 13/09 Q1022
  • 231000Z 15005KT 120V180 CAVOK 13/10 Q1022
  • 230930Z 15004KT 120V180 9999 FEW004 12/10 Q1022

TAF TAF EPSC
Valido dal 23 a 12 ore il 24 a 12 ore UTC


231130Z 2312/2412 13005KT CAVOK
PROB30 2316/2320 4000 BR
BECMG 2320/2322 3000 BR BKN005
TEMPO 2400/2408 0600 FG BKN001
PROB40 2401/2407 0200 FG
BECMG 2409/2412 8000 BKN007



MetMap, La meteo Aeronautica in un colpo d'occhio ! - Copyright ORBIFLY Dicembre 2007 - Disclaimer

ORBIFLY MET'MAP TEAM :

Programmazione e sviluppo : Alexandra Zaïnal
Concezione e sviluppo : Baudouin d'Aumeries
Co-Programmazione e sviluppo : Marc-Olivier Méhu
Supporto tecnico e logistico : Manuel Goepfert
Aiuto per la traduzione : Arnaldo La Scala

Contatto : metmap@orbifly.com




FONTI E CREDITI :

   NOAA